sensor_id;sensor_type;location;lat;lon;timestamp;P1;durP1;ratioP1;P2;durP2;ratioP2
14876;SDS011;22152;48.158;17.118;2023-04-24T00:00:54;10.00;;;6.32;;
14876;SDS011;22152;48.158;17.118;2023-04-24T00:03:26;12.35;;;6.60;;
14876;SDS011;22152;48.158;17.118;2023-04-24T00:05:53;9.73;;;6.88;;
14876;SDS011;22152;48.158;17.118;2023-04-24T00:08:20;14.35;;;7.00;;
14876;SDS011;22152;48.158;17.118;2023-04-24T00:10:46;9.52;;;7.00;;
14876;SDS011;22152;48.158;17.118;2023-04-24T00:13:12;11.20;;;6.80;;
14876;SDS011;22152;48.158;17.118;2023-04-24T00:15:38;13.32;;;7.40;;
14876;SDS011;22152;48.158;17.118;2023-04-24T00:18:03;13.57;;;6.30;;
14876;SDS011;22152;48.158;17.118;2023-04-24T00:20:29;12.25;;;7.03;;
14876;SDS011;22152;48.158;17.118;2023-04-24T00:22:57;12.98;;;6.85;;
14876;SDS011;22152;48.158;17.118;2023-04-24T00:25:23;11.50;;;6.60;;
14876;SDS011;22152;48.158;17.118;2023-04-24T00:27:49;10.13;;;6.43;;
14876;SDS011;22152;48.158;17.118;2023-04-24T00:30:15;10.88;;;6.95;;
14876;SDS011;22152;48.158;17.118;2023-04-24T00:32:41;13.98;;;7.35;;
14876;SDS011;22152;48.158;17.118;2023-04-24T00:35:07;13.95;;;6.57;;
14876;SDS011;22152;48.158;17.118;2023-04-24T00:37:33;10.63;;;6.72;;
14876;SDS011;22152;48.158;17.118;2023-04-24T00:39:59;10.57;;;6.05;;
14876;SDS011;22152;48.158;17.118;2023-04-24T00:42:25;8.98;;;6.40;;
14876;SDS011;22152;48.158;17.118;2023-04-24T00:44:51;9.48;;;6.50;;
14876;SDS011;22152;48.158;17.118;2023-04-24T00:47:19;9.88;;;7.22;;
14876;SDS011;22152;48.158;17.118;2023-04-24T00:49:45;11.65;;;6.40;;
14876;SDS011;22152;48.158;17.118;2023-04-24T00:52:11;10.65;;;6.00;;
14876;SDS011;22152;48.158;17.118;2023-04-24T00:54:37;9.57;;;6.00;;
14876;SDS011;22152;48.158;17.118;2023-04-24T00:57:03;8.38;;;6.22;;
14876;SDS011;22152;48.158;17.118;2023-04-24T00:59:30;11.93;;;6.47;;
14876;SDS011;22152;48.158;17.118;2023-04-24T01:01:56;11.30;;;6.13;;
14876;SDS011;22152;48.158;17.118;2023-04-24T01:04:23;11.63;;;5.43;;
14876;SDS011;22152;48.158;17.118;2023-04-24T01:06:51;9.07;;;6.20;;
14876;SDS011;22152;48.158;17.118;2023-04-24T01:09:18;10.30;;;5.55;;
14876;SDS011;22152;48.158;17.118;2023-04-24T01:11:44;10.73;;;5.70;;
14876;SDS011;22152;48.158;17.118;2023-04-24T01:14:11;8.75;;;5.68;;
14876;SDS011;22152;48.158;17.118;2023-04-24T01:16:37;8.73;;;6.03;;
14876;SDS011;22152;48.158;17.118;2023-04-24T01:19:03;11.68;;;5.63;;
14876;SDS011;22152;48.158;17.118;2023-04-24T01:21:31;8.50;;;6.43;;
14876;SDS011;22152;48.158;17.118;2023-04-24T01:24:02;13.45;;;6.30;;
14876;SDS011;22152;48.158;17.118;2023-04-24T01:26:30;11.27;;;5.72;;
14876;SDS011;22152;48.158;17.118;2023-04-24T01:28:56;11.15;;;6.13;;
14876;SDS011;22152;48.158;17.118;2023-04-24T01:31:22;10.95;;;6.30;;
14876;SDS011;22152;48.158;17.118;2023-04-24T01:33:49;10.10;;;6.40;;
14876;SDS011;22152;48.158;17.118;2023-04-24T01:36:16;12.02;;;6.10;;
14876;SDS011;22152;48.158;17.118;2023-04-24T01:38:43;8.65;;;6.70;;
14876;SDS011;22152;48.158;17.118;2023-04-24T01:41:09;14.38;;;6.65;;
14876;SDS011;22152;48.158;17.118;2023-04-24T01:43:35;9.35;;;6.75;;
14876;SDS011;22152;48.158;17.118;2023-04-24T01:46:01;11.13;;;6.47;;
14876;SDS011;22152;48.158;17.118;2023-04-24T01:48:27;11.32;;;7.13;;
14876;SDS011;22152;48.158;17.118;2023-04-24T01:50:53;10.75;;;6.68;;
14876;SDS011;22152;48.158;17.118;2023-04-24T01:53:19;12.27;;;7.10;;
14876;SDS011;22152;48.158;17.118;2023-04-24T01:55:45;11.05;;;6.65;;
14876;SDS011;22152;48.158;17.118;2023-04-24T01:58:12;8.95;;;7.10;;
14876;SDS011;22152;48.158;17.118;2023-04-24T02:00:38;13.70;;;7.72;;
14876;SDS011;22152;48.158;17.118;2023-04-24T02:03:04;13.68;;;7.93;;
14876;SDS011;22152;48.158;17.118;2023-04-24T02:05:29;10.02;;;7.35;;
14876;SDS011;22152;48.158;17.118;2023-04-24T02:07:55;12.57;;;6.97;;
14876;SDS011;22152;48.158;17.118;2023-04-24T02:10:21;10.57;;;7.78;;
14876;SDS011;22152;48.158;17.118;2023-04-24T02:12:47;15.77;;;8.68;;
14876;SDS011;22152;48.158;17.118;2023-04-24T02:15:14;9.35;;;7.20;;
14876;SDS011;22152;48.158;17.118;2023-04-24T02:17:40;10.43;;;7.88;;
14876;SDS011;22152;48.158;17.118;2023-04-24T02:20:06;14.80;;;7.50;;
14876;SDS011;22152;48.158;17.118;2023-04-24T02:22:32;12.40;;;8.13;;
14876;SDS011;22152;48.158;17.118;2023-04-24T02:25:00;13.32;;;9.15;;
14876;SDS011;22152;48.158;17.118;2023-04-24T02:27:26;13.27;;;7.82;;
14876;SDS011;22152;48.158;17.118;2023-04-24T02:29:52;10.18;;;7.82;;
14876;SDS011;22152;48.158;17.118;2023-04-24T02:32:18;11.13;;;7.72;;
14876;SDS011;22152;48.158;17.118;2023-04-24T02:34:44;13.30;;;8.38;;
14876;SDS011;22152;48.158;17.118;2023-04-24T02:37:11;10.50;;;8.07;;
14876;SDS011;22152;48.158;17.118;2023-04-24T02:39:37;17.05;;;8.82;;
14876;SDS011;22152;48.158;17.118;2023-04-24T02:42:03;21.02;;;9.75;;
14876;SDS011;22152;48.158;17.118;2023-04-24T02:44:29;14.43;;;8.55;;
14876;SDS011;22152;48.158;17.118;2023-04-24T02:46:55;14.43;;;8.35;;
14876;SDS011;22152;48.158;17.118;2023-04-24T02:49:22;12.20;;;8.18;;
14876;SDS011;22152;48.158;17.118;2023-04-24T02:51:48;13.13;;;8.93;;
14876;SDS011;22152;48.158;17.118;2023-04-24T02:54:13;12.43;;;8.52;;
14876;SDS011;22152;48.158;17.118;2023-04-24T02:56:39;11.82;;;8.52;;
14876;SDS011;22152;48.158;17.118;2023-04-24T02:59:07;12.80;;;8.65;;
14876;SDS011;22152;48.158;17.118;2023-04-24T03:01:33;22.13;;;9.40;;
14876;SDS011;22152;48.158;17.118;2023-04-24T03:03:59;14.80;;;8.32;;
14876;SDS011;22152;48.158;17.118;2023-04-24T03:06:25;14.75;;;8.80;;
14876;SDS011;22152;48.158;17.118;2023-04-24T03:08:52;14.27;;;9.50;;
14876;SDS011;22152;48.158;17.118;2023-04-24T03:11:18;12.30;;;9.75;;
14876;SDS011;22152;48.158;17.118;2023-04-24T03:13:44;13.38;;;8.75;;
14876;SDS011;22152;48.158;17.118;2023-04-24T03:16:10;21.35;;;8.80;;
14876;SDS011;22152;48.158;17.118;2023-04-24T03:18:36;10.45;;;9.00;;
14876;SDS011;22152;48.158;17.118;2023-04-24T03:21:03;13.07;;;10.00;;
14876;SDS011;22152;48.158;17.118;2023-04-24T03:23:29;15.50;;;9.45;;
14876;SDS011;22152;48.158;17.118;2023-04-24T03:25:56;16.75;;;9.70;;
14876;SDS011;22152;48.158;17.118;2023-04-24T03:28:21;17.38;;;9.63;;
14876;SDS011;22152;48.158;17.118;2023-04-24T03:30:53;13.50;;;9.60;;
14876;SDS011;22152;48.158;17.118;2023-04-24T03:33:21;15.25;;;9.32;;
14876;SDS011;22152;48.158;17.118;2023-04-24T03:35:58;15.07;;;9.85;;
14876;SDS011;22152;48.158;17.118;2023-04-24T03:38:24;15.25;;;9.77;;
14876;SDS011;22152;48.158;17.118;2023-04-24T03:40:57;11.73;;;9.30;;
14876;SDS011;22152;48.158;17.118;2023-04-24T03:43:46;13.80;;;11.13;;
14876;SDS011;22152;48.158;17.118;2023-04-24T03:46:12;16.58;;;11.52;;
14876;SDS011;22152;48.158;17.118;2023-04-24T03:48:43;16.70;;;11.00;;
14876;SDS011;22152;48.158;17.118;2023-04-24T03:51:09;23.35;;;13.80;;
14876;SDS011;22152;48.158;17.118;2023-04-24T03:53:38;16.85;;;11.57;;
14876;SDS011;22152;48.158;17.118;2023-04-24T03:56:04;18.60;;;11.40;;
14876;SDS011;22152;48.158;17.118;2023-04-24T03:58:31;16.95;;;11.32;;
14876;SDS011;22152;48.158;17.118;2023-04-24T04:00:57;13.38;;;10.85;;
14876;SDS011;22152;48.158;17.118;2023-04-24T04:03:41;14.68;;;11.43;;
14876;SDS011;22152;48.158;17.118;2023-04-24T04:06:07;14.60;;;11.55;;
14876;SDS011;22152;48.158;17.118;2023-04-24T04:08:33;17.50;;;11.45;;
14876;SDS011;22152;48.158;17.118;2023-04-24T04:10:59;17.00;;;11.27;;
14876;SDS011;22152;48.158;17.118;2023-04-24T04:13:25;22.70;;;11.52;;
14876;SDS011;22152;48.158;17.118;2023-04-24T04:15:50;15.85;;;11.27;;
14876;SDS011;22152;48.158;17.118;2023-04-24T04:18:16;21.50;;;12.15;;
14876;SDS011;22152;48.158;17.118;2023-04-24T04:20:42;16.90;;;11.27;;
14876;SDS011;22152;48.158;17.118;2023-04-24T04:23:10;22.67;;;12.43;;
14876;SDS011;22152;48.158;17.118;2023-04-24T04:25:55;20.20;;;12.25;;
14876;SDS011;22152;48.158;17.118;2023-04-24T04:28:26;18.00;;;11.60;;
14876;SDS011;22152;48.158;17.118;2023-04-24T04:30:52;21.25;;;12.18;;
14876;SDS011;22152;48.158;17.118;2023-04-24T04:33:23;19.48;;;11.05;;
14876;SDS011;22152;48.158;17.118;2023-04-24T04:35:51;16.10;;;12.80;;
14876;SDS011;22152;48.158;17.118;2023-04-24T04:38:18;19.90;;;12.82;;
14876;SDS011;22152;48.158;17.118;2023-04-24T04:40:50;19.30;;;13.18;;
14876;SDS011;22152;48.158;17.118;2023-04-24T04:43:18;18.45;;;11.85;;
14876;SDS011;22152;48.158;17.118;2023-04-24T04:45:50;17.17;;;12.07;;
14876;SDS011;22152;48.158;17.118;2023-04-24T04:48:37;20.90;;;12.32;;
14876;SDS011;22152;48.158;17.118;2023-04-24T04:51:05;13.80;;;11.20;;
14876;SDS011;22152;48.158;17.118;2023-04-24T04:53:31;17.75;;;12.35;;
14876;SDS011;22152;48.158;17.118;2023-04-24T04:55:57;18.73;;;12.55;;
14876;SDS011;22152;48.158;17.118;2023-04-24T04:58:32;15.95;;;11.95;;
14876;SDS011;22152;48.158;17.118;2023-04-24T05:01:00;23.08;;;16.42;;
14876;SDS011;22152;48.158;17.118;2023-04-24T05:03:31;16.38;;;11.85;;
14876;SDS011;22152;48.158;17.118;2023-04-24T05:06:02;17.33;;;12.07;;
14876;SDS011;22152;48.158;17.118;2023-04-24T05:08:32;19.55;;;12.13;;
14876;SDS011;22152;48.158;17.118;2023-04-24T05:10:58;16.58;;;11.50;;
14876;SDS011;22152;48.158;17.118;2023-04-24T05:13:26;18.90;;;12.77;;
14876;SDS011;22152;48.158;17.118;2023-04-24T05:15:52;21.85;;;11.75;;
14876;SDS011;22152;48.158;17.118;2023-04-24T05:18:19;16.25;;;11.98;;
14876;SDS011;22152;48.158;17.118;2023-04-24T05:20:45;17.73;;;11.30;;
14876;SDS011;22152;48.158;17.118;2023-04-24T05:23:11;20.75;;;11.90;;
14876;SDS011;22152;48.158;17.118;2023-04-24T05:25:40;21.23;;;11.02;;
14876;SDS011;22152;48.158;17.118;2023-04-24T05:28:09;16.08;;;11.00;;
14876;SDS011;22152;48.158;17.118;2023-04-24T05:30:35;18.08;;;10.50;;
14876;SDS011;22152;48.158;17.118;2023-04-24T05:33:01;20.92;;;10.80;;
14876;SDS011;22152;48.158;17.118;2023-04-24T05:35:28;15.82;;;9.95;;
14876;SDS011;22152;48.158;17.118;2023-04-24T05:37:55;20.30;;;10.63;;
14876;SDS011;22152;48.158;17.118;2023-04-24T05:40:20;17.63;;;9.70;;
14876;SDS011;22152;48.158;17.118;2023-04-24T05:42:47;16.50;;;9.68;;
14876;SDS011;22152;48.158;17.118;2023-04-24T05:45:13;12.05;;;8.60;;
14876;SDS011;22152;48.158;17.118;2023-04-24T05:47:42;14.60;;;9.85;;
14876;SDS011;22152;48.158;17.118;2023-04-24T05:50:10;13.98;;;9.75;;
14876;SDS011;22152;48.158;17.118;2023-04-24T05:52:36;12.43;;;9.07;;
14876;SDS011;22152;48.158;17.118;2023-04-24T05:55:08;16.58;;;9.27;;
14876;SDS011;22152;48.158;17.118;2023-04-24T05:57:37;13.98;;;9.25;;
14876;SDS011;22152;48.158;17.118;2023-04-24T06:00:03;18.88;;;9.65;;
14876;SDS011;22152;48.158;17.118;2023-04-24T06:02:38;14.80;;;9.80;;
14876;SDS011;22152;48.158;17.118;2023-04-24T06:05:07;11.10;;;7.55;;
14876;SDS011;22152;48.158;17.118;2023-04-24T06:07:33;9.30;;;6.43;;
14876;SDS011;22152;48.158;17.118;2023-04-24T06:10:02;7.50;;;5.40;;
14876;SDS011;22152;48.158;17.118;2023-04-24T06:12:35;11.63;;;5.68;;
14876;SDS011;22152;48.158;17.118;2023-04-24T06:15:06;8.32;;;6.10;;
14876;SDS011;22152;48.158;17.118;2023-04-24T06:17:48;12.30;;;6.20;;
14876;SDS011;22152;48.158;17.118;2023-04-24T06:20:15;8.13;;;5.95;;
14876;SDS011;22152;48.158;17.118;2023-04-24T06:22:41;6.07;;;4.53;;
14876;SDS011;22152;48.158;17.118;2023-04-24T06:25:09;9.43;;;5.43;;
14876;SDS011;22152;48.158;17.118;2023-04-24T06:27:35;7.57;;;5.07;;
14876;SDS011;22152;48.158;17.118;2023-04-24T06:30:01;11.05;;;5.28;;
14876;SDS011;22152;48.158;17.118;2023-04-24T06:32:27;7.68;;;4.88;;
14876;SDS011;22152;48.158;17.118;2023-04-24T06:34:53;11.05;;;5.72;;
14876;SDS011;22152;48.158;17.118;2023-04-24T06:37:22;8.77;;;4.80;;
14876;SDS011;22152;48.158;17.118;2023-04-24T06:39:48;6.15;;;4.78;;
14876;SDS011;22152;48.158;17.118;2023-04-24T06:42:14;5.65;;;4.35;;
14876;SDS011;22152;48.158;17.118;2023-04-24T06:44:42;6.88;;;4.22;;
14876;SDS011;22152;48.158;17.118;2023-04-24T06:47:09;7.25;;;4.78;;
14876;SDS011;22152;48.158;17.118;2023-04-24T06:49:36;12.20;;;5.25;;
14876;SDS011;22152;48.158;17.118;2023-04-24T06:52:02;5.90;;;4.10;;
14876;SDS011;22152;48.158;17.118;2023-04-24T06:54:29;7.38;;;4.28;;
14876;SDS011;22152;48.158;17.118;2023-04-24T06:56:56;5.13;;;3.65;;
14876;SDS011;22152;48.158;17.118;2023-04-24T06:59:25;7.65;;;3.72;;
14876;SDS011;22152;48.158;17.118;2023-04-24T07:01:53;5.20;;;3.75;;
14876;SDS011;22152;48.158;17.118;2023-04-24T07:04:19;6.65;;;3.70;;
14876;SDS011;22152;48.158;17.118;2023-04-24T07:06:45;4.55;;;2.83;;
14876;SDS011;22152;48.158;17.118;2023-04-24T07:09:14;7.03;;;4.18;;
14876;SDS011;22152;48.158;17.118;2023-04-24T07:11:44;7.25;;;3.55;;
14876;SDS011;22152;48.158;17.118;2023-04-24T07:14:11;5.30;;;3.60;;
14876;SDS011;22152;48.158;17.118;2023-04-24T07:16:37;6.68;;;4.30;;
14876;SDS011;22152;48.158;17.118;2023-04-24T07:19:03;6.30;;;3.35;;
14876;SDS011;22152;48.158;17.118;2023-04-24T07:21:29;7.47;;;3.42;;
14876;SDS011;22152;48.158;17.118;2023-04-24T07:23:57;8.95;;;4.13;;
14876;SDS011;22152;48.158;17.118;2023-04-24T07:26:23;7.43;;;3.78;;
14876;SDS011;22152;48.158;17.118;2023-04-24T07:28:51;12.40;;;4.70;;
14876;SDS011;22152;48.158;17.118;2023-04-24T07:31:16;6.15;;;3.38;;
14876;SDS011;22152;48.158;17.118;2023-04-24T07:33:42;4.57;;;3.38;;
14876;SDS011;22152;48.158;17.118;2023-04-24T07:36:08;7.63;;;3.35;;
14876;SDS011;22152;48.158;17.118;2023-04-24T07:38:40;5.70;;;3.70;;
14876;SDS011;22152;48.158;17.118;2023-04-24T07:41:10;6.70;;;3.40;;
14876;SDS011;22152;48.158;17.118;2023-04-24T07:43:37;4.63;;;3.60;;
14876;SDS011;22152;48.158;17.118;2023-04-24T07:46:03;4.93;;;3.40;;
14876;SDS011;22152;48.158;17.118;2023-04-24T07:48:29;5.72;;;3.50;;
14876;SDS011;22152;48.158;17.118;2023-04-24T07:50:55;4.55;;;3.38;;
14876;SDS011;22152;48.158;17.118;2023-04-24T07:53:21;7.47;;;4.07;;
14876;SDS011;22152;48.158;17.118;2023-04-24T07:55:47;6.50;;;3.63;;
14876;SDS011;22152;48.158;17.118;2023-04-24T07:58:13;13.45;;;3.45;;
14876;SDS011;22152;48.158;17.118;2023-04-24T08:00:41;5.72;;;3.38;;
14876;SDS011;22152;48.158;17.118;2023-04-24T08:03:07;5.30;;;3.15;;
14876;SDS011;22152;48.158;17.118;2023-04-24T08:05:33;6.00;;;3.25;;
14876;SDS011;22152;48.158;17.118;2023-04-24T08:07:59;14.55;;;4.20;;
14876;SDS011;22152;48.158;17.118;2023-04-24T08:10:25;15.80;;;10.60;;
14876;SDS011;22152;48.158;17.118;2023-04-24T08:12:51;6.75;;;3.55;;
14876;SDS011;22152;48.158;17.118;2023-04-24T08:15:17;5.35;;;3.03;;
14876;SDS011;22152;48.158;17.118;2023-04-24T08:17:43;5.90;;;3.05;;
14876;SDS011;22152;48.158;17.118;2023-04-24T08:20:10;4.93;;;2.85;;
14876;SDS011;22152;48.158;17.118;2023-04-24T08:22:40;5.35;;;2.95;;
14876;SDS011;22152;48.158;17.118;2023-04-24T08:25:08;4.70;;;3.15;;
14876;SDS011;22152;48.158;17.118;2023-04-24T08:27:35;17.55;;;3.20;;
14876;SDS011;22152;48.158;17.118;2023-04-24T08:30:02;4.15;;;2.65;;
14876;SDS011;22152;48.158;17.118;2023-04-24T08:35:28;6.85;;;3.58;;
14876;SDS011;22152;48.158;17.118;2023-04-24T08:37:55;6.32;;;3.03;;
14876;SDS011;22152;48.158;17.118;2023-04-24T08:40:22;4.03;;;3.22;;
14876;SDS011;22152;48.158;17.118;2023-04-24T08:42:58;5.88;;;3.42;;
14876;SDS011;22152;48.158;17.118;2023-04-24T08:45:27;8.60;;;3.40;;
14876;SDS011;22152;48.158;17.118;2023-04-24T08:47:54;8.68;;;4.40;;
14876;SDS011;22152;48.158;17.118;2023-04-24T08:50:24;5.88;;;3.50;;
14876;SDS011;22152;48.158;17.118;2023-04-24T08:52:51;6.53;;;3.33;;
14876;SDS011;22152;48.158;17.118;2023-04-24T08:55:19;8.15;;;3.38;;
14876;SDS011;22152;48.158;17.118;2023-04-24T08:57:50;8.68;;;3.50;;
14876;SDS011;22152;48.158;17.118;2023-04-24T09:00:19;4.30;;;3.10;;
14876;SDS011;22152;48.158;17.118;2023-04-24T09:02:47;8.75;;;3.08;;
14876;SDS011;22152;48.158;17.118;2023-04-24T09:05:18;7.28;;;3.30;;
14876;SDS011;22152;48.158;17.118;2023-04-24T09:07:49;4.85;;;3.10;;
14876;SDS011;22152;48.158;17.118;2023-04-24T09:10:22;8.48;;;2.67;;
14876;SDS011;22152;48.158;17.118;2023-04-24T09:12:50;7.13;;;2.83;;
14876;SDS011;22152;48.158;17.118;2023-04-24T09:15:18;4.95;;;2.35;;
14876;SDS011;22152;48.158;17.118;2023-04-24T09:17:45;2.97;;;2.28;;
14876;SDS011;22152;48.158;17.118;2023-04-24T09:20:12;5.25;;;2.33;;
14876;SDS011;22152;48.158;17.118;2023-04-24T09:22:38;6.05;;;2.53;;
14876;SDS011;22152;48.158;17.118;2023-04-24T09:25:05;4.95;;;2.10;;
14876;SDS011;22152;48.158;17.118;2023-04-24T09:27:34;4.10;;;2.30;;
14876;SDS011;22152;48.158;17.118;2023-04-24T09:30:00;9.68;;;3.60;;
14876;SDS011;22152;48.158;17.118;2023-04-24T09:32:28;3.25;;;2.28;;
14876;SDS011;22152;48.158;17.118;2023-04-24T09:35:14;4.95;;;2.53;;
14876;SDS011;22152;48.158;17.118;2023-04-24T09:37:41;7.18;;;2.65;;
14876;SDS011;22152;48.158;17.118;2023-04-24T09:42:44;14.10;;;2.13;;
14876;SDS011;22152;48.158;17.118;2023-04-24T09:45:37;4.43;;;1.63;;
14876;SDS011;22152;48.158;17.118;2023-04-24T09:48:05;4.68;;;2.08;;
14876;SDS011;22152;48.158;17.118;2023-04-24T09:50:35;2.58;;;2.03;;
14876;SDS011;22152;48.158;17.118;2023-04-24T09:53:02;6.18;;;2.25;;
14876;SDS011;22152;48.158;17.118;2023-04-24T09:55:39;3.55;;;1.98;;
14876;SDS011;22152;48.158;17.118;2023-04-24T09:58:10;4.60;;;1.98;;
14876;SDS011;22152;48.158;17.118;2023-04-24T10:00:36;5.07;;;2.13;;
14876;SDS011;22152;48.158;17.118;2023-04-24T10:03:02;2.35;;;1.73;;
14876;SDS011;22152;48.158;17.118;2023-04-24T10:05:33;3.33;;;1.77;;
14876;SDS011;22152;48.158;17.118;2023-04-24T10:10:33;4.18;;;2.05;;
14876;SDS011;22152;48.158;17.118;2023-04-24T10:13:03;3.65;;;1.50;;
14876;SDS011;22152;48.158;17.118;2023-04-24T10:15:30;2.15;;;1.30;;
14876;SDS011;22152;48.158;17.118;2023-04-24T10:18:00;2.03;;;1.48;;
14876;SDS011;22152;48.158;17.118;2023-04-24T10:20:27;5.60;;;1.55;;
14876;SDS011;22152;48.158;17.118;2023-04-24T10:22:56;3.00;;;1.75;;
14876;SDS011;22152;48.158;17.118;2023-04-24T10:25:25;3.58;;;1.55;;
14876;SDS011;22152;48.158;17.118;2023-04-24T10:27:54;3.30;;;2.03;;
14876;SDS011;22152;48.158;17.118;2023-04-24T10:30:23;3.13;;;1.30;;
14876;SDS011;22152;48.158;17.118;2023-04-24T10:32:51;1.38;;;1.20;;
14876;SDS011;22152;48.158;17.118;2023-04-24T10:35:17;1.98;;;1.40;;
14876;SDS011;22152;48.158;17.118;2023-04-24T10:37:51;1.02;;;0.70;;
14876;SDS011;22152;48.158;17.118;2023-04-24T10:40:27;2.47;;;1.27;;
14876;SDS011;22152;48.158;17.118;2023-04-24T10:42:58;1.63;;;1.17;;
14876;SDS011;22152;48.158;17.118;2023-04-24T10:45:34;1.27;;;0.90;;
14876;SDS011;22152;48.158;17.118;2023-04-24T10:48:07;1.98;;;1.25;;
14876;SDS011;22152;48.158;17.118;2023-04-24T10:50:42;1.00;;;0.82;;
14876;SDS011;22152;48.158;17.118;2023-04-24T10:53:17;2.47;;;1.33;;
14876;SDS011;22152;48.158;17.118;2023-04-24T10:55:56;1.52;;;1.10;;
14876;SDS011;22152;48.158;17.118;2023-04-24T11:01:27;1.23;;;0.90;;
14876;SDS011;22152;48.158;17.118;2023-04-24T11:03:56;1.60;;;1.10;;
14876;SDS011;22152;48.158;17.118;2023-04-24T11:06:34;1.50;;;0.88;;
14876;SDS011;22152;48.158;17.118;2023-04-24T11:09:05;4.68;;;1.02;;
14876;SDS011;22152;48.158;17.118;2023-04-24T11:11:33;2.70;;;1.10;;
14876;SDS011;22152;48.158;17.118;2023-04-24T11:14:03;2.03;;;1.50;;
14876;SDS011;22152;48.158;17.118;2023-04-24T11:16:32;1.20;;;0.98;;
14876;SDS011;22152;48.158;17.118;2023-04-24T11:19:05;3.08;;;1.05;;
14876;SDS011;22152;48.158;17.118;2023-04-24T11:24:29;3.10;;;1.70;;
14876;SDS011;22152;48.158;17.118;2023-04-24T11:27:15;3.10;;;1.05;;
14876;SDS011;22152;48.158;17.118;2023-04-24T11:29:48;1.83;;;1.20;;
14876;SDS011;22152;48.158;17.118;2023-04-24T11:32:36;1.98;;;1.27;;
14876;SDS011;22152;48.158;17.118;2023-04-24T11:35:13;4.63;;;1.65;;
14876;SDS011;22152;48.158;17.118;2023-04-24T11:37:51;3.17;;;1.73;;
14876;SDS011;22152;48.158;17.118;2023-04-24T11:40:19;4.78;;;1.33;;
14876;SDS011;22152;48.158;17.118;2023-04-24T11:42:48;2.75;;;2.30;;
14876;SDS011;22152;48.158;17.118;2023-04-24T11:45:18;4.68;;;1.83;;
14876;SDS011;22152;48.158;17.118;2023-04-24T11:47:51;2.50;;;1.80;;
14876;SDS011;22152;48.158;17.118;2023-04-24T11:50:18;2.88;;;1.73;;
14876;SDS011;22152;48.158;17.118;2023-04-24T11:52:47;10.68;;;2.55;;
14876;SDS011;22152;48.158;17.118;2023-04-24T11:57:44;5.85;;;2.47;;
14876;SDS011;22152;48.158;17.118;2023-04-24T12:03:06;5.28;;;1.58;;
14876;SDS011;22152;48.158;17.118;2023-04-24T12:05:34;3.80;;;2.13;;
14876;SDS011;22152;48.158;17.118;2023-04-24T12:08:00;6.03;;;1.77;;
14876;SDS011;22152;48.158;17.118;2023-04-24T12:10:27;4.65;;;2.08;;
14876;SDS011;22152;48.158;17.118;2023-04-24T12:12:55;4.75;;;1.40;;
14876;SDS011;22152;48.158;17.118;2023-04-24T12:15:23;3.72;;;1.60;;
14876;SDS011;22152;48.158;17.118;2023-04-24T12:17:50;1.55;;;1.25;;
14876;SDS011;22152;48.158;17.118;2023-04-24T12:20:17;1.85;;;0.82;;
14876;SDS011;22152;48.158;17.118;2023-04-24T12:22:57;1.58;;;1.10;;
14876;SDS011;22152;48.158;17.118;2023-04-24T12:25:25;2.58;;;1.52;;
14876;SDS011;22152;48.158;17.118;2023-04-24T12:30:29;1.90;;;1.50;;
14876;SDS011;22152;48.158;17.118;2023-04-24T12:32:58;2.53;;;1.77;;
14876;SDS011;22152;48.158;17.118;2023-04-24T12:35:26;3.85;;;1.60;;
14876;SDS011;22152;48.158;17.118;2023-04-24T12:37:54;3.85;;;1.60;;
14876;SDS011;22152;48.158;17.118;2023-04-24T12:40:20;2.58;;;1.67;;
14876;SDS011;22152;48.158;17.118;2023-04-24T12:42:48;3.08;;;1.50;;
14876;SDS011;22152;48.158;17.118;2023-04-24T12:45:16;3.42;;;1.75;;
14876;SDS011;22152;48.158;17.118;2023-04-24T12:47:44;3.95;;;1.85;;
14876;SDS011;22152;48.158;17.118;2023-04-24T12:50:12;4.45;;;1.88;;
14876;SDS011;22152;48.158;17.118;2023-04-24T12:52:40;2.97;;;1.60;;
14876;SDS011;22152;48.158;17.118;2023-04-24T12:55:16;1.42;;;1.30;;
14876;SDS011;22152;48.158;17.118;2023-04-24T12:58:02;2.22;;;1.40;;
14876;SDS011;22152;48.158;17.118;2023-04-24T13:00:30;1.25;;;0.95;;
14876;SDS011;22152;48.158;17.118;2023-04-24T13:03:12;2.30;;;1.50;;
14876;SDS011;22152;48.158;17.118;2023-04-24T13:05:38;1.40;;;1.25;;
14876;SDS011;22152;48.158;17.118;2023-04-24T13:08:05;2.22;;;1.30;;
14876;SDS011;22152;48.158;17.118;2023-04-24T13:10:31;3.17;;;1.70;;
14876;SDS011;22152;48.158;17.118;2023-04-24T13:12:57;1.98;;;1.38;;
14876;SDS011;22152;48.158;17.118;2023-04-24T13:15:23;2.00;;;1.20;;
14876;SDS011;22152;48.158;17.118;2023-04-24T13:17:49;3.03;;;1.67;;
14876;SDS011;22152;48.158;17.118;2023-04-24T13:20:15;3.85;;;1.50;;
14876;SDS011;22152;48.158;17.118;2023-04-24T13:22:41;2.00;;;1.40;;
14876;SDS011;22152;48.158;17.118;2023-04-24T13:25:07;2.60;;;2.40;;
14876;SDS011;22152;48.158;17.118;2023-04-24T13:27:34;3.38;;;1.67;;
14876;SDS011;22152;48.158;17.118;2023-04-24T13:30:00;3.95;;;1.48;;
14876;SDS011;22152;48.158;17.118;2023-04-24T13:32:26;1.98;;;1.33;;
14876;SDS011;22152;48.158;17.118;2023-04-24T13:34:52;4.85;;;1.45;;
14876;SDS011;22152;48.158;17.118;2023-04-24T13:37:18;4.20;;;2.50;;
14876;SDS011;22152;48.158;17.118;2023-04-24T13:39:44;2.88;;;1.75;;
14876;SDS011;22152;48.158;17.118;2023-04-24T13:42:10;2.08;;;1.70;;
14876;SDS011;22152;48.158;17.118;2023-04-24T13:44:36;2.97;;;1.58;;
14876;SDS011;22152;48.158;17.118;2023-04-24T13:47:01;1.70;;;1.52;;
14876;SDS011;22152;48.158;17.118;2023-04-24T13:49:27;4.57;;;1.83;;
14876;SDS011;22152;48.158;17.118;2023-04-24T13:51:54;3.70;;;2.17;;
14876;SDS011;22152;48.158;17.118;2023-04-24T13:54:20;3.10;;;1.77;;
14876;SDS011;22152;48.158;17.118;2023-04-24T13:56:48;1.88;;;1.23;;
14876;SDS011;22152;48.158;17.118;2023-04-24T13:59:14;1.27;;;1.00;;
14876;SDS011;22152;48.158;17.118;2023-04-24T14:01:40;5.18;;;1.27;;
14876;SDS011;22152;48.158;17.118;2023-04-24T14:04:06;2.10;;;1.40;;
14876;SDS011;22152;48.158;17.118;2023-04-24T14:06:32;2.38;;;1.35;;
14876;SDS011;22152;48.158;17.118;2023-04-24T14:08:58;2.22;;;1.80;;
14876;SDS011;22152;48.158;17.118;2023-04-24T14:11:23;6.20;;;1.45;;
14876;SDS011;22152;48.158;17.118;2023-04-24T14:13:51;3.05;;;1.27;;
14876;SDS011;22152;48.158;17.118;2023-04-24T14:16:16;4.60;;;1.08;;
14876;SDS011;22152;48.158;17.118;2023-04-24T14:18:42;0.68;;;0.60;;
14876;SDS011;22152;48.158;17.118;2023-04-24T14:21:08;1.17;;;0.82;;
14876;SDS011;22152;48.158;17.118;2023-04-24T14:23:34;1.70;;;0.85;;
14876;SDS011;22152;48.158;17.118;2023-04-24T14:26:00;2.67;;;1.05;;
14876;SDS011;22152;48.158;17.118;2023-04-24T14:28:26;4.75;;;1.27;;
14876;SDS011;22152;48.158;17.118;2023-04-24T14:30:53;1.65;;;0.65;;
14876;SDS011;22152;48.158;17.118;2023-04-24T14:33:19;1.50;;;0.60;;
14876;SDS011;22152;48.158;17.118;2023-04-24T14:35:45;3.10;;;0.77;;
14876;SDS011;22152;48.158;17.118;2023-04-24T14:38:11;1.40;;;0.60;;
14876;SDS011;22152;48.158;17.118;2023-04-24T14:40:37;1.40;;;0.63;;
14876;SDS011;22152;48.158;17.118;2023-04-24T14:43:03;4.22;;;0.90;;
14876;SDS011;22152;48.158;17.118;2023-04-24T14:45:29;2.17;;;0.77;;
14876;SDS011;22152;48.158;17.118;2023-04-24T14:47:55;1.92;;;0.80;;
14876;SDS011;22152;48.158;17.118;2023-04-24T14:50:22;1.80;;;1.25;;
14876;SDS011;22152;48.158;17.118;2023-04-24T14:52:48;1.08;;;0.70;;
14876;SDS011;22152;48.158;17.118;2023-04-24T14:55:14;0.93;;;0.60;;